sensor_id;sensor_type;location;lat;lon;timestamp;P1;durP1;ratioP1;P2;durP2;ratioP2
11731;SDS011;5922;53.734;10.258;2024-02-21T00:02:06;29.50;;;15.33;;
11731;SDS011;5922;53.734;10.258;2024-02-21T00:04:47;30.40;;;14.40;;
11731;SDS011;5922;53.734;10.258;2024-02-21T00:07:18;26.77;;;13.47;;
11731;SDS011;5922;53.734;10.258;2024-02-21T00:09:46;27.43;;;14.10;;
11731;SDS011;5922;53.734;10.258;2024-02-21T00:12:13;31.10;;;14.30;;
11731;SDS011;5922;53.734;10.258;2024-02-21T00:14:40;23.73;;;14.27;;
11731;SDS011;5922;53.734;10.258;2024-02-21T00:17:10;30.97;;;14.60;;
11731;SDS011;5922;53.734;10.258;2024-02-21T00:19:39;29.23;;;14.80;;
11731;SDS011;5922;53.734;10.258;2024-02-21T00:22:07;25.77;;;14.13;;
11731;SDS011;5922;53.734;10.258;2024-02-21T00:24:36;26.03;;;14.83;;
11731;SDS011;5922;53.734;10.258;2024-02-21T00:27:06;25.77;;;14.63;;
11731;SDS011;5922;53.734;10.258;2024-02-21T00:29:34;26.40;;;14.80;;
11731;SDS011;5922;53.734;10.258;2024-02-21T00:32:01;24.47;;;13.20;;
11731;SDS011;5922;53.734;10.258;2024-02-21T00:34:28;30.37;;;15.00;;
11731;SDS011;5922;53.734;10.258;2024-02-21T00:36:56;24.03;;;14.70;;
11731;SDS011;5922;53.734;10.258;2024-02-21T00:39:23;23.80;;;13.97;;
11731;SDS011;5922;53.734;10.258;2024-02-21T00:41:52;25.43;;;13.90;;
11731;SDS011;5922;53.734;10.258;2024-02-21T00:44:19;28.20;;;14.23;;
11731;SDS011;5922;53.734;10.258;2024-02-21T00:46:46;22.00;;;14.83;;
11731;SDS011;5922;53.734;10.258;2024-02-21T00:49:36;26.83;;;15.90;;
11731;SDS011;5922;53.734;10.258;2024-02-21T00:52:03;27.23;;;15.43;;
11731;SDS011;5922;53.734;10.258;2024-02-21T00:54:30;23.63;;;15.60;;
11731;SDS011;5922;53.734;10.258;2024-02-21T00:56:59;27.67;;;15.13;;
11731;SDS011;5922;53.734;10.258;2024-02-21T00:59:26;27.43;;;15.23;;
11731;SDS011;5922;53.734;10.258;2024-02-21T01:01:54;33.60;;;15.37;;
11731;SDS011;5922;53.734;10.258;2024-02-21T01:04:21;26.97;;;14.90;;
11731;SDS011;5922;53.734;10.258;2024-02-21T01:06:49;35.63;;;15.83;;
11731;SDS011;5922;53.734;10.258;2024-02-21T01:09:17;29.23;;;15.50;;
11731;SDS011;5922;53.734;10.258;2024-02-21T01:11:44;24.43;;;15.50;;
11731;SDS011;5922;53.734;10.258;2024-02-21T01:14:13;23.83;;;15.10;;
11731;SDS011;5922;53.734;10.258;2024-02-21T01:16:40;27.70;;;16.37;;
11731;SDS011;5922;53.734;10.258;2024-02-21T01:19:11;26.50;;;15.53;;
11731;SDS011;5922;53.734;10.258;2024-02-21T01:21:43;27.87;;;15.70;;
11731;SDS011;5922;53.734;10.258;2024-02-21T01:24:11;27.17;;;16.20;;
11731;SDS011;5922;53.734;10.258;2024-02-21T01:26:39;29.60;;;15.90;;
11731;SDS011;5922;53.734;10.258;2024-02-21T01:29:06;26.57;;;15.13;;
11731;SDS011;5922;53.734;10.258;2024-02-21T01:31:37;28.37;;;16.50;;
11731;SDS011;5922;53.734;10.258;2024-02-21T01:34:05;28.37;;;16.00;;
11731;SDS011;5922;53.734;10.258;2024-02-21T01:36:32;31.33;;;16.17;;
11731;SDS011;5922;53.734;10.258;2024-02-21T01:38:59;32.90;;;17.03;;
11731;SDS011;5922;53.734;10.258;2024-02-21T01:41:29;31.40;;;16.53;;
11731;SDS011;5922;53.734;10.258;2024-02-21T01:43:56;31.20;;;16.60;;
11731;SDS011;5922;53.734;10.258;2024-02-21T01:46:24;27.43;;;14.30;;
11731;SDS011;5922;53.734;10.258;2024-02-21T01:48:55;24.60;;;14.97;;
11731;SDS011;5922;53.734;10.258;2024-02-21T01:51:25;25.20;;;16.03;;
11731;SDS011;5922;53.734;10.258;2024-02-21T01:53:55;27.53;;;15.20;;
11731;SDS011;5922;53.734;10.258;2024-02-21T01:56:22;22.23;;;14.27;;
11731;SDS011;5922;53.734;10.258;2024-02-21T01:58:49;23.30;;;14.10;;
11731;SDS011;5922;53.734;10.258;2024-02-21T02:01:17;25.60;;;15.10;;
11731;SDS011;5922;53.734;10.258;2024-02-21T02:03:45;22.77;;;13.87;;
11731;SDS011;5922;53.734;10.258;2024-02-21T02:06:14;21.93;;;13.70;;
11731;SDS011;5922;53.734;10.258;2024-02-21T02:08:41;19.70;;;12.63;;
11731;SDS011;5922;53.734;10.258;2024-02-21T02:11:09;20.93;;;13.80;;
11731;SDS011;5922;53.734;10.258;2024-02-21T02:14:12;24.57;;;13.30;;
11731;SDS011;5922;53.734;10.258;2024-02-21T02:16:45;23.90;;;13.27;;
11731;SDS011;5922;53.734;10.258;2024-02-21T02:19:31;17.33;;;12.57;;
11731;SDS011;5922;53.734;10.258;2024-02-21T02:25:01;19.27;;;11.60;;
11731;SDS011;5922;53.734;10.258;2024-02-21T02:27:31;21.10;;;12.00;;
11731;SDS011;5922;53.734;10.258;2024-02-21T02:29:58;19.20;;;12.07;;
11731;SDS011;5922;53.734;10.258;2024-02-21T02:32:28;21.90;;;11.90;;
11731;SDS011;5922;53.734;10.258;2024-02-21T02:34:55;19.50;;;12.27;;
11731;SDS011;5922;53.734;10.258;2024-02-21T02:37:25;17.53;;;11.50;;
11731;SDS011;5922;53.734;10.258;2024-02-21T02:39:52;17.03;;;11.63;;
11731;SDS011;5922;53.734;10.258;2024-02-21T02:42:23;16.40;;;11.23;;
11731;SDS011;5922;53.734;10.258;2024-02-21T02:44:50;14.67;;;11.10;;
11731;SDS011;5922;53.734;10.258;2024-02-21T02:47:18;18.33;;;11.47;;
11731;SDS011;5922;53.734;10.258;2024-02-21T02:49:47;16.80;;;12.33;;
11731;SDS011;5922;53.734;10.258;2024-02-21T02:52:23;19.07;;;12.17;;
11731;SDS011;5922;53.734;10.258;2024-02-21T02:54:52;22.30;;;13.67;;
11731;SDS011;5922;53.734;10.258;2024-02-21T02:57:23;14.73;;;11.87;;
11731;SDS011;5922;53.734;10.258;2024-02-21T02:59:51;18.37;;;12.90;;
11731;SDS011;5922;53.734;10.258;2024-02-21T03:02:20;20.23;;;13.57;;
11731;SDS011;5922;53.734;10.258;2024-02-21T03:04:50;17.00;;;13.37;;
11731;SDS011;5922;53.734;10.258;2024-02-21T03:07:19;20.77;;;14.37;;
11731;SDS011;5922;53.734;10.258;2024-02-21T03:09:47;22.90;;;14.77;;
11731;SDS011;5922;53.734;10.258;2024-02-21T03:12:17;21.97;;;13.87;;
11731;SDS011;5922;53.734;10.258;2024-02-21T03:14:51;24.37;;;15.13;;
11731;SDS011;5922;53.734;10.258;2024-02-21T03:17:20;25.40;;;15.60;;
11731;SDS011;5922;53.734;10.258;2024-02-21T03:19:48;26.37;;;15.37;;
11731;SDS011;5922;53.734;10.258;2024-02-21T03:22:17;22.57;;;15.23;;
11731;SDS011;5922;53.734;10.258;2024-02-21T03:24:45;25.90;;;15.80;;
11731;SDS011;5922;53.734;10.258;2024-02-21T03:27:12;22.83;;;15.07;;
11731;SDS011;5922;53.734;10.258;2024-02-21T03:29:40;23.23;;;15.97;;
11731;SDS011;5922;53.734;10.258;2024-02-21T03:32:08;24.10;;;16.47;;
11731;SDS011;5922;53.734;10.258;2024-02-21T03:34:41;22.83;;;15.43;;
11731;SDS011;5922;53.734;10.258;2024-02-21T03:37:08;29.67;;;17.17;;
11731;SDS011;5922;53.734;10.258;2024-02-21T03:39:38;24.07;;;16.13;;
11731;SDS011;5922;53.734;10.258;2024-02-21T03:42:06;25.60;;;15.87;;
11731;SDS011;5922;53.734;10.258;2024-02-21T03:44:33;30.10;;;16.00;;
11731;SDS011;5922;53.734;10.258;2024-02-21T03:47:01;30.70;;;16.57;;
11731;SDS011;5922;53.734;10.258;2024-02-21T03:49:29;26.90;;;16.40;;
11731;SDS011;5922;53.734;10.258;2024-02-21T03:52:08;27.30;;;15.77;;
11731;SDS011;5922;53.734;10.258;2024-02-21T03:54:36;25.43;;;15.13;;
11731;SDS011;5922;53.734;10.258;2024-02-21T03:57:04;21.40;;;14.57;;
11731;SDS011;5922;53.734;10.258;2024-02-21T03:59:31;20.73;;;14.37;;
11731;SDS011;5922;53.734;10.258;2024-02-21T04:02:01;21.83;;;14.50;;
11731;SDS011;5922;53.734;10.258;2024-02-21T04:04:34;21.53;;;13.50;;
11731;SDS011;5922;53.734;10.258;2024-02-21T04:07:05;24.83;;;14.23;;
11731;SDS011;5922;53.734;10.258;2024-02-21T04:09:34;24.20;;;13.97;;
11731;SDS011;5922;53.734;10.258;2024-02-21T04:12:02;24.87;;;13.93;;
11731;SDS011;5922;53.734;10.258;2024-02-21T04:14:29;24.40;;;12.83;;
11731;SDS011;5922;53.734;10.258;2024-02-21T04:17:04;24.47;;;13.30;;
11731;SDS011;5922;53.734;10.258;2024-02-21T04:19:35;20.37;;;13.50;;
11731;SDS011;5922;53.734;10.258;2024-02-21T04:22:03;19.70;;;13.40;;
11731;SDS011;5922;53.734;10.258;2024-02-21T04:24:35;22.67;;;13.30;;
11731;SDS011;5922;53.734;10.258;2024-02-21T04:27:02;23.50;;;12.47;;
11731;SDS011;5922;53.734;10.258;2024-02-21T04:29:30;22.77;;;11.80;;
11731;SDS011;5922;53.734;10.258;2024-02-21T04:31:58;17.13;;;11.37;;
11731;SDS011;5922;53.734;10.258;2024-02-21T04:34:25;17.77;;;11.70;;
11731;SDS011;5922;53.734;10.258;2024-02-21T04:36:54;17.77;;;11.87;;
11731;SDS011;5922;53.734;10.258;2024-02-21T04:39:21;14.77;;;11.53;;
11731;SDS011;5922;53.734;10.258;2024-02-21T04:41:48;18.73;;;11.37;;
11731;SDS011;5922;53.734;10.258;2024-02-21T04:44:16;16.57;;;10.60;;
11731;SDS011;5922;53.734;10.258;2024-02-21T04:46:46;16.13;;;10.37;;
11731;SDS011;5922;53.734;10.258;2024-02-21T04:49:16;14.23;;;10.40;;
11731;SDS011;5922;53.734;10.258;2024-02-21T04:51:48;14.63;;;10.40;;
11731;SDS011;5922;53.734;10.258;2024-02-21T04:54:17;12.87;;;9.97;;
11731;SDS011;5922;53.734;10.258;2024-02-21T04:56:49;15.73;;;10.73;;
11731;SDS011;5922;53.734;10.258;2024-02-21T04:59:16;20.40;;;10.77;;
11731;SDS011;5922;53.734;10.258;2024-02-21T05:01:43;14.37;;;10.03;;
11731;SDS011;5922;53.734;10.258;2024-02-21T05:04:23;11.23;;;9.00;;
11731;SDS011;5922;53.734;10.258;2024-02-21T05:06:51;12.17;;;9.20;;
11731;SDS011;5922;53.734;10.258;2024-02-21T05:09:19;12.93;;;9.40;;
11731;SDS011;5922;53.734;10.258;2024-02-21T05:11:47;13.47;;;9.07;;
11731;SDS011;5922;53.734;10.258;2024-02-21T05:14:14;12.30;;;8.50;;
11731;SDS011;5922;53.734;10.258;2024-02-21T05:16:42;9.97;;;7.73;;
11731;SDS011;5922;53.734;10.258;2024-02-21T05:19:09;11.70;;;7.83;;
11731;SDS011;5922;53.734;10.258;2024-02-21T05:21:36;9.97;;;8.37;;
11731;SDS011;5922;53.734;10.258;2024-02-21T05:24:06;9.57;;;7.20;;
11731;SDS011;5922;53.734;10.258;2024-02-21T05:26:35;8.73;;;7.20;;
11731;SDS011;5922;53.734;10.258;2024-02-21T05:29:02;10.27;;;7.00;;
11731;SDS011;5922;53.734;10.258;2024-02-21T05:31:42;8.30;;;6.47;;
11731;SDS011;5922;53.734;10.258;2024-02-21T05:34:12;7.57;;;5.83;;
11731;SDS011;5922;53.734;10.258;2024-02-21T05:36:42;7.90;;;5.97;;
11731;SDS011;5922;53.734;10.258;2024-02-21T05:39:12;7.23;;;6.43;;
11731;SDS011;5922;53.734;10.258;2024-02-21T05:41:44;9.40;;;6.97;;
11731;SDS011;5922;53.734;10.258;2024-02-21T05:44:11;7.53;;;6.20;;
11731;SDS011;5922;53.734;10.258;2024-02-21T05:46:39;6.17;;;5.30;;
11731;SDS011;5922;53.734;10.258;2024-02-21T05:49:08;7.33;;;5.53;;
11731;SDS011;5922;53.734;10.258;2024-02-21T05:51:36;7.13;;;5.67;;
11731;SDS011;5922;53.734;10.258;2024-02-21T05:54:03;5.63;;;4.90;;
11731;SDS011;5922;53.734;10.258;2024-02-21T05:56:32;6.27;;;5.57;;
11731;SDS011;5922;53.734;10.258;2024-02-21T05:59:03;6.07;;;4.93;;
11731;SDS011;5922;53.734;10.258;2024-02-21T06:01:31;5.17;;;4.43;;
11731;SDS011;5922;53.734;10.258;2024-02-21T06:04:07;5.63;;;4.73;;
11731;SDS011;5922;53.734;10.258;2024-02-21T06:06:34;6.07;;;4.60;;
11731;SDS011;5922;53.734;10.258;2024-02-21T06:09:05;6.13;;;4.30;;
11731;SDS011;5922;53.734;10.258;2024-02-21T06:11:32;4.83;;;4.17;;
11731;SDS011;5922;53.734;10.258;2024-02-21T06:14:11;4.10;;;3.70;;
11731;SDS011;5922;53.734;10.258;2024-02-21T06:16:42;5.30;;;3.87;;
11731;SDS011;5922;53.734;10.258;2024-02-21T06:19:12;3.80;;;3.50;;
11731;SDS011;5922;53.734;10.258;2024-02-21T06:21:39;4.33;;;3.93;;
11731;SDS011;5922;53.734;10.258;2024-02-21T06:24:06;4.07;;;3.73;;
11731;SDS011;5922;53.734;10.258;2024-02-21T06:26:45;3.87;;;3.57;;
11731;SDS011;5922;53.734;10.258;2024-02-21T06:29:14;3.97;;;3.60;;
11731;SDS011;5922;53.734;10.258;2024-02-21T06:31:42;3.20;;;2.70;;
11731;SDS011;5922;53.734;10.258;2024-02-21T06:34:47;3.00;;;2.70;;
11731;SDS011;5922;53.734;10.258;2024-02-21T06:37:09;2.37;;;2.03;;
11731;SDS011;5922;53.734;10.258;2024-02-21T06:39:37;2.60;;;2.17;;
11731;SDS011;5922;53.734;10.258;2024-02-21T06:42:09;3.07;;;2.00;;
11731;SDS011;5922;53.734;10.258;2024-02-21T06:44:53;3.90;;;2.10;;
11731;SDS011;5922;53.734;10.258;2024-02-21T06:47:21;2.87;;;1.70;;
11731;SDS011;5922;53.734;10.258;2024-02-21T06:49:48;3.37;;;2.10;;
11731;SDS011;5922;53.734;10.258;2024-02-21T06:52:17;4.27;;;2.00;;
11731;SDS011;5922;53.734;10.258;2024-02-21T06:54:45;4.73;;;2.40;;
11731;SDS011;5922;53.734;10.258;2024-02-21T06:57:13;4.90;;;2.10;;
11731;SDS011;5922;53.734;10.258;2024-02-21T06:59:40;2.60;;;2.03;;
11731;SDS011;5922;53.734;10.258;2024-02-21T07:02:09;3.20;;;2.03;;
11731;SDS011;5922;53.734;10.258;2024-02-21T07:04:44;2.67;;;1.97;;
11731;SDS011;5922;53.734;10.258;2024-02-21T07:07:11;2.80;;;1.90;;
11731;SDS011;5922;53.734;10.258;2024-02-21T07:09:38;2.33;;;1.50;;
11731;SDS011;5922;53.734;10.258;2024-02-21T07:12:06;3.70;;;1.40;;
11731;SDS011;5922;53.734;10.258;2024-02-21T07:14:33;3.33;;;1.50;;
11731;SDS011;5922;53.734;10.258;2024-02-21T07:17:00;2.33;;;1.83;;
11731;SDS011;5922;53.734;10.258;2024-02-21T07:19:30;2.47;;;1.90;;
11731;SDS011;5922;53.734;10.258;2024-02-21T07:21:57;2.50;;;1.70;;
11731;SDS011;5922;53.734;10.258;2024-02-21T07:24:28;3.47;;;1.60;;
11731;SDS011;5922;53.734;10.258;2024-02-21T07:26:56;3.80;;;1.70;;
11731;SDS011;5922;53.734;10.258;2024-02-21T07:29:29;2.33;;;1.60;;
11731;SDS011;5922;53.734;10.258;2024-02-21T07:31:56;1.50;;;1.40;;
11731;SDS011;5922;53.734;10.258;2024-02-21T07:34:24;2.07;;;1.70;;
11731;SDS011;5922;53.734;10.258;2024-02-21T07:36:55;2.17;;;1.60;;
11731;SDS011;5922;53.734;10.258;2024-02-21T07:39:25;1.80;;;1.70;;
11731;SDS011;5922;53.734;10.258;2024-02-21T07:41:53;2.80;;;1.77;;
11731;SDS011;5922;53.734;10.258;2024-02-21T07:44:20;2.23;;;1.40;;
11731;SDS011;5922;53.734;10.258;2024-02-21T07:46:47;3.73;;;1.90;;
11731;SDS011;5922;53.734;10.258;2024-02-21T07:49:15;3.60;;;2.00;;
11731;SDS011;5922;53.734;10.258;2024-02-21T07:51:42;2.83;;;1.77;;
11731;SDS011;5922;53.734;10.258;2024-02-21T07:54:11;2.83;;;2.03;;
11731;SDS011;5922;53.734;10.258;2024-02-21T07:56:38;4.63;;;2.20;;
11731;SDS011;5922;53.734;10.258;2024-02-21T07:59:05;4.53;;;1.93;;
11731;SDS011;5922;53.734;10.258;2024-02-21T08:01:33;5.93;;;2.03;;
11731;SDS011;5922;53.734;10.258;2024-02-21T08:04:00;6.40;;;2.10;;
11731;SDS011;5922;53.734;10.258;2024-02-21T08:06:29;6.30;;;2.20;;
11731;SDS011;5922;53.734;10.258;2024-02-21T08:08:56;6.97;;;2.70;;
11731;SDS011;5922;53.734;10.258;2024-02-21T08:11:29;8.07;;;2.40;;
11731;SDS011;5922;53.734;10.258;2024-02-21T08:13:57;10.30;;;2.57;;
11731;SDS011;5922;53.734;10.258;2024-02-21T08:16:26;5.80;;;2.37;;
11731;SDS011;5922;53.734;10.258;2024-02-21T08:18:53;6.13;;;2.47;;
11731;SDS011;5922;53.734;10.258;2024-02-21T08:21:20;10.77;;;3.57;;
11731;SDS011;5922;53.734;10.258;2024-02-21T08:23:51;8.73;;;3.27;;
11731;SDS011;5922;53.734;10.258;2024-02-21T08:26:19;6.37;;;3.13;;
11731;SDS011;5922;53.734;10.258;2024-02-21T08:28:48;9.07;;;2.77;;
11731;SDS011;5922;53.734;10.258;2024-02-21T08:31:18;10.37;;;3.30;;
11731;SDS011;5922;53.734;10.258;2024-02-21T08:33:45;8.07;;;2.63;;
11731;SDS011;5922;53.734;10.258;2024-02-21T08:36:17;6.60;;;2.70;;
11731;SDS011;5922;53.734;10.258;2024-02-21T08:38:45;13.87;;;3.67;;
11731;SDS011;5922;53.734;10.258;2024-02-21T08:41:19;6.23;;;2.73;;
11731;SDS011;5922;53.734;10.258;2024-02-21T08:43:51;12.00;;;3.43;;
11731;SDS011;5922;53.734;10.258;2024-02-21T08:46:19;12.27;;;3.57;;
11731;SDS011;5922;53.734;10.258;2024-02-21T08:48:46;15.53;;;3.67;;
11731;SDS011;5922;53.734;10.258;2024-02-21T08:51:14;13.73;;;3.30;;
11731;SDS011;5922;53.734;10.258;2024-02-21T08:53:41;13.50;;;3.50;;
11731;SDS011;5922;53.734;10.258;2024-02-21T08:56:08;20.27;;;3.40;;
11731;SDS011;5922;53.734;10.258;2024-02-21T08:58:36;14.00;;;3.47;;
11731;SDS011;5922;53.734;10.258;2024-02-21T09:01:04;10.47;;;2.90;;
11731;SDS011;5922;53.734;10.258;2024-02-21T09:03:35;11.93;;;3.20;;
11731;SDS011;5922;53.734;10.258;2024-02-21T09:06:03;12.67;;;3.23;;
11731;SDS011;5922;53.734;10.258;2024-02-21T09:08:33;12.30;;;2.97;;
11731;SDS011;5922;53.734;10.258;2024-02-21T09:11:00;12.60;;;3.57;;
11731;SDS011;5922;53.734;10.258;2024-02-21T09:13:28;16.03;;;3.53;;
11731;SDS011;5922;53.734;10.258;2024-02-21T09:15:56;9.97;;;3.27;;
11731;SDS011;5922;53.734;10.258;2024-02-21T09:18:25;14.13;;;3.30;;
11731;SDS011;5922;53.734;10.258;2024-02-21T09:20:52;13.27;;;3.60;;
11731;SDS011;5922;53.734;10.258;2024-02-21T09:23:19;11.57;;;3.07;;
11731;SDS011;5922;53.734;10.258;2024-02-21T09:25:46;13.00;;;3.17;;
11731;SDS011;5922;53.734;10.258;2024-02-21T09:28:14;15.43;;;3.23;;
11731;SDS011;5922;53.734;10.258;2024-02-21T09:30:41;10.60;;;3.00;;
11731;SDS011;5922;53.734;10.258;2024-02-21T09:33:08;10.27;;;3.27;;
11731;SDS011;5922;53.734;10.258;2024-02-21T09:35:59;13.17;;;3.13;;
11731;SDS011;5922;53.734;10.258;2024-02-21T09:38:26;11.90;;;3.50;;
11731;SDS011;5922;53.734;10.258;2024-02-21T09:40:56;15.67;;;3.10;;
11731;SDS011;5922;53.734;10.258;2024-02-21T09:43:39;17.70;;;3.50;;
11731;SDS011;5922;53.734;10.258;2024-02-21T09:46:07;16.47;;;3.47;;
11731;SDS011;5922;53.734;10.258;2024-02-21T09:48:55;10.40;;;3.60;;
11731;SDS011;5922;53.734;10.258;2024-02-21T09:51:29;13.50;;;3.23;;
11731;SDS011;5922;53.734;10.258;2024-02-21T09:53:58;11.07;;;3.30;;
11731;SDS011;5922;53.734;10.258;2024-02-21T09:56:26;9.67;;;2.83;;
11731;SDS011;5922;53.734;10.258;2024-02-21T09:58:53;15.17;;;3.70;;
11731;SDS011;5922;53.734;10.258;2024-02-21T10:01:21;11.30;;;3.30;;
11731;SDS011;5922;53.734;10.258;2024-02-21T10:03:48;13.60;;;4.00;;
11731;SDS011;5922;53.734;10.258;2024-02-21T10:06:15;12.50;;;3.03;;
11731;SDS011;5922;53.734;10.258;2024-02-21T10:08:44;15.63;;;2.87;;
11731;SDS011;5922;53.734;10.258;2024-02-21T10:11:21;12.63;;;3.20;;
11731;SDS011;5922;53.734;10.258;2024-02-21T10:13:49;12.17;;;3.47;;
11731;SDS011;5922;53.734;10.258;2024-02-21T10:16:17;11.60;;;3.07;;
11731;SDS011;5922;53.734;10.258;2024-02-21T10:18:44;12.60;;;3.27;;
11731;SDS011;5922;53.734;10.258;2024-02-21T10:21:11;13.57;;;3.33;;
11731;SDS011;5922;53.734;10.258;2024-02-21T10:23:42;13.00;;;2.93;;
11731;SDS011;5922;53.734;10.258;2024-02-21T10:26:11;10.87;;;3.20;;
11731;SDS011;5922;53.734;10.258;2024-02-21T10:28:38;8.23;;;3.23;;
11731;SDS011;5922;53.734;10.258;2024-02-21T10:31:07;9.73;;;2.67;;
11731;SDS011;5922;53.734;10.258;2024-02-21T10:33:35;11.53;;;3.03;;
11731;SDS011;5922;53.734;10.258;2024-02-21T10:36:06;9.73;;;2.80;;
11731;SDS011;5922;53.734;10.258;2024-02-21T10:38:34;12.03;;;3.10;;
11731;SDS011;5922;53.734;10.258;2024-02-21T10:41:05;8.53;;;2.67;;
11731;SDS011;5922;53.734;10.258;2024-02-21T10:43:37;11.73;;;2.73;;
11731;SDS011;5922;53.734;10.258;2024-02-21T10:46:13;7.23;;;2.50;;
11731;SDS011;5922;53.734;10.258;2024-02-21T10:48:42;7.93;;;2.77;;
11731;SDS011;5922;53.734;10.258;2024-02-21T10:51:17;8.00;;;2.73;;
11731;SDS011;5922;53.734;10.258;2024-02-21T10:53:47;4.93;;;2.10;;
11731;SDS011;5922;53.734;10.258;2024-02-21T10:56:26;5.60;;;2.50;;
11731;SDS011;5922;53.734;10.258;2024-02-21T10:58:55;4.60;;;2.07;;
11731;SDS011;5922;53.734;10.258;2024-02-21T11:01:24;4.23;;;2.20;;
11731;SDS011;5922;53.734;10.258;2024-02-21T11:03:54;6.60;;;2.60;;
11731;SDS011;5922;53.734;10.258;2024-02-21T11:06:22;5.70;;;2.50;;
11731;SDS011;5922;53.734;10.258;2024-02-21T11:08:59;4.43;;;2.17;;
11731;SDS011;5922;53.734;10.258;2024-02-21T11:11:27;6.20;;;2.50;;
11731;SDS011;5922;53.734;10.258;2024-02-21T11:14:05;4.70;;;2.33;;
11731;SDS011;5922;53.734;10.258;2024-02-21T11:16:36;5.17;;;3.00;;
11731;SDS011;5922;53.734;10.258;2024-02-21T11:19:07;9.53;;;3.90;;
11731;SDS011;5922;53.734;10.258;2024-02-21T11:21:36;4.93;;;3.90;;
11731;SDS011;5922;53.734;10.258;2024-02-21T11:24:03;5.57;;;3.83;;
11731;SDS011;5922;53.734;10.258;2024-02-21T11:26:31;4.53;;;4.10;;
11731;SDS011;5922;53.734;10.258;2024-02-21T11:28:59;8.03;;;5.23;;
11731;SDS011;5922;53.734;10.258;2024-02-21T11:31:37;6.80;;;5.10;;
11731;SDS011;5922;53.734;10.258;2024-02-21T11:34:08;8.20;;;6.97;;
11731;SDS011;5922;53.734;10.258;2024-02-21T11:36:50;10.70;;;7.13;;
11731;SDS011;5922;53.734;10.258;2024-02-21T11:39:21;12.77;;;8.97;;
11731;SDS011;5922;53.734;10.258;2024-02-21T11:42:03;9.83;;;8.83;;
11731;SDS011;5922;53.734;10.258;2024-02-21T11:44:33;11.40;;;10.03;;
11731;SDS011;5922;53.734;10.258;2024-02-21T11:47:04;11.67;;;9.83;;
11731;SDS011;5922;53.734;10.258;2024-02-21T11:49:37;14.60;;;10.50;;
11731;SDS011;5922;53.734;10.258;2024-02-21T11:52:05;14.00;;;11.23;;
11731;SDS011;5922;53.734;10.258;2024-02-21T11:54:33;16.73;;;11.57;;
11731;SDS011;5922;53.734;10.258;2024-02-21T11:57:01;19.10;;;13.10;;
11731;SDS011;5922;53.734;10.258;2024-02-21T11:59:29;19.83;;;13.00;;
11731;SDS011;5922;53.734;10.258;2024-02-21T12:01:58;17.03;;;13.17;;
11731;SDS011;5922;53.734;10.258;2024-02-21T12:04:26;17.57;;;12.70;;
11731;SDS011;5922;53.734;10.258;2024-02-21T12:06:56;17.30;;;12.37;;
11731;SDS011;5922;53.734;10.258;2024-02-21T12:09:23;18.27;;;13.20;;
11731;SDS011;5922;53.734;10.258;2024-02-21T12:11:57;18.43;;;13.10;;
11731;SDS011;5922;53.734;10.258;2024-02-21T12:14:25;18.07;;;12.13;;
11731;SDS011;5922;53.734;10.258;2024-02-21T12:16:53;16.17;;;12.67;;
11731;SDS011;5922;53.734;10.258;2024-02-21T12:19:21;15.73;;;12.00;;
11731;SDS011;5922;53.734;10.258;2024-02-21T12:21:50;16.83;;;11.63;;
11731;SDS011;5922;53.734;10.258;2024-02-21T12:24:20;15.70;;;11.63;;
11731;SDS011;5922;53.734;10.258;2024-02-21T12:26:48;14.57;;;11.50;;
11731;SDS011;5922;53.734;10.258;2024-02-21T12:29:15;17.27;;;10.97;;
11731;SDS011;5922;53.734;10.258;2024-02-21T12:31:42;14.67;;;10.13;;
11731;SDS011;5922;53.734;10.258;2024-02-21T12:34:10;15.37;;;9.20;;
11731;SDS011;5922;53.734;10.258;2024-02-21T12:36:40;13.40;;;9.07;;
11731;SDS011;5922;53.734;10.258;2024-02-21T12:54:04;11.43;;;8.77;;
11731;SDS011;5922;53.734;10.258;2024-02-21T12:56:37;9.97;;;8.10;;
11731;SDS011;5922;53.734;10.258;2024-02-21T13:01:49;13.93;;;8.83;;
11731;SDS011;5922;53.734;10.258;2024-02-21T13:04:20;11.77;;;8.30;;
11731;SDS011;5922;53.734;10.258;2024-02-21T13:09:48;11.77;;;8.87;;
11731;SDS011;5922;53.734;10.258;2024-02-21T13:12:20;11.33;;;9.00;;
11731;SDS011;5922;53.734;10.258;2024-02-21T13:14:56;12.40;;;8.80;;
11731;SDS011;5922;53.734;10.258;2024-02-21T13:17:24;14.70;;;8.63;;
11731;SDS011;5922;53.734;10.258;2024-02-21T13:20:05;10.87;;;8.57;;
11731;SDS011;5922;53.734;10.258;2024-02-21T13:22:33;13.30;;;8.60;;
11731;SDS011;5922;53.734;10.258;2024-02-21T13:25:21;11.77;;;8.07;;
11731;SDS011;5922;53.734;10.258;2024-02-21T13:27:57;13.77;;;8.60;;
11731;SDS011;5922;53.734;10.258;2024-02-21T13:30:29;14.93;;;9.07;;
11731;SDS011;5922;53.734;10.258;2024-02-21T13:35:28;13.63;;;8.73;;
11731;SDS011;5922;53.734;10.258;2024-02-21T13:37:56;13.73;;;8.33;;
11731;SDS011;5922;53.734;10.258;2024-02-21T13:40:24;11.50;;;8.30;;
11731;SDS011;5922;53.734;10.258;2024-02-21T13:43:07;13.50;;;8.27;;
11731;SDS011;5922;53.734;10.258;2024-02-21T13:45:34;15.17;;;9.53;;
11731;SDS011;5922;53.734;10.258;2024-02-21T13:48:02;13.23;;;9.23;;
11731;SDS011;5922;53.734;10.258;2024-02-21T13:50:31;15.83;;;9.37;;
11731;SDS011;5922;53.734;10.258;2024-02-21T13:53:07;13.53;;;9.33;;
11731;SDS011;5922;53.734;10.258;2024-02-21T13:55:36;14.93;;;9.53;;
11731;SDS011;5922;53.734;10.258;2024-02-21T13:58:03;15.03;;;9.67;;
11731;SDS011;5922;53.734;10.258;2024-02-21T14:00:30;13.53;;;9.27;;
11731;SDS011;5922;53.734;10.258;2024-02-21T14:03:01;18.30;;;10.10;;
11731;SDS011;5922;53.734;10.258;2024-02-21T14:05:28;14.50;;;9.60;;
11731;SDS011;5922;53.734;10.258;2024-02-21T14:07:55;14.90;;;8.83;;
11731;SDS011;5922;53.734;10.258;2024-02-21T14:10:23;14.03;;;9.43;;
11731;SDS011;5922;53.734;10.258;2024-02-21T14:12:52;15.13;;;9.53;;
11731;SDS011;5922;53.734;10.258;2024-02-21T14:15:20;14.40;;;10.00;;
11731;SDS011;5922;53.734;10.258;2024-02-21T14:17:47;14.40;;;9.40;;
11731;SDS011;5922;53.734;10.258;2024-02-21T14:20:14;15.30;;;9.37;;
11731;SDS011;5922;53.734;10.258;2024-02-21T14:22:41;15.07;;;9.07;;
11731;SDS011;5922;53.734;10.258;2024-02-21T14:25:09;16.00;;;8.60;;
11731;SDS011;5922;53.734;10.258;2024-02-21T14:27:37;12.83;;;9.10;;
11731;SDS011;5922;53.734;10.258;2024-02-21T14:30:07;14.90;;;9.50;;
11731;SDS011;5922;53.734;10.258;2024-02-21T14:32:35;15.50;;;9.23;;
11731;SDS011;5922;53.734;10.258;2024-02-21T14:35:03;18.47;;;10.03;;
11731;SDS011;5922;53.734;10.258;2024-02-21T14:37:31;19.60;;;10.70;;
11731;SDS011;5922;53.734;10.258;2024-02-21T14:39:58;20.57;;;11.03;;
11731;SDS011;5922;53.734;10.258;2024-02-21T14:42:26;15.80;;;10.40;;
11731;SDS011;5922;53.734;10.258;2024-02-21T14:44:53;16.00;;;9.07;;
11731;SDS011;5922;53.734;10.258;2024-02-21T14:47:30;15.53;;;10.03;;
11731;SDS011;5922;53.734;10.258;2024-02-21T14:49:57;16.07;;;10.03;;
11731;SDS011;5922;53.734;10.258;2024-02-21T14:52:25;14.10;;;9.93;;
11731;SDS011;5922;53.734;10.258;2024-02-21T14:54:55;14.80;;;9.60;;
11731;SDS011;5922;53.734;10.258;2024-02-21T14:57:22;16.70;;;10.87;;
11731;SDS011;5922;53.734;10.258;2024-02-21T14:59:50;14.63;;;9.47;;
11731;SDS011;5922;53.734;10.258;2024-02-21T15:02:21;15.20;;;9.93;;
11731;SDS011;5922;53.734;10.258;2024-02-21T15:04:52;17.23;;;9.93;;
11731;SDS011;5922;53.734;10.258;2024-02-21T15:07:20;14.73;;;9.13;;
11731;SDS011;5922;53.734;10.258;2024-02-21T15:09:49;14.53;;;9.57;;
11731;SDS011;5922;53.734;10.258;2024-02-21T15:12:17;15.47;;;9.90;;
11731;SDS011;5922;53.734;10.258;2024-02-21T15:14:44;13.97;;;8.60;;